King Salmon Airport
PAKN : now visible

Airfield :











YOU CAN JOIN US ON...

 
LOGIN :

Register | Disclaimer

   EN    FR    IT 

 









Legend :    VFR   Marginal VFR   IFR   Intensive IFR   Very Intensive IFR
Visi :
Ceiling :
>= 8 km
>= 3000ft
5 to 8 km
1000 to 3000 ft
1500m to 5 km
500 to 1000 ft
800 to 1500m
200 to 500 ft
< 800m
< 200 ft
Symbols :   Thunderstorms  Fog  Heavy snow  Heavy precipitations  Wind > 20 kt






- Airport Elevation : 73 ft
- IATA code : AKN


PAKN - King Salmon

CURRENT METAR :
  • 261554Z AUTO 27012KT 5SM -RA BR FEW021 OVC026 04/03 A2949 RMK AO2 RAE1458B43 SLP987 P0000 T00440033 TSNO

EXPIRED METARs :
  • 261454Z AUTO 25012KT 7SM -RA SCT012 BKN021 OVC027 05/03 A2946 RMK AO2 RAB49 SLP975 P0000 60000 T00500033 53005 TSNO
  • 261418Z AUTO 25007KT 10SM FEW013 BKN026 OVC047 04/03 A2945 RMK AO2 T00440033 TSNO
  • 261354Z AUTO 24011KT 10SM OVC042 04/03 A2945 RMK AO2 SLP972 T00440033 TSNO

TAF PAKN
Valid from the 26 at 13:00 until the 27 at 12:00 UTC


261306Z 2613/2712 26011KT 6SM -RA BR SCT007 BKN080
TEMPO 2613/2616 4SM -RA BR BKN007 OVC080
FM262000 29015G25KT 6SM -RA OVC015
FM270200 28010KT P6SM OVC050
PAZA FIR / North America



MET'MAP, your aeronautical weather chart ! - Copyright ORBIFLY December 2007 - Disclaimer

ORBIFLY MET'MAP TEAM :

Programming & Development : Alexandra Zaïnal
Concept & original design : Baudouin d'Aumeries
Assistance for programming : Marc-Olivier Méhu
Technical & hardware support : Manuel Goepfert

Contact : metmap@orbifly.com




SOURCES & CREDITS :

   NOAA       Earth
Advisory